<?xml version="1.0" encoding="UTF-8" standalone="no" ?>
<gpx xmlns="http://www.topografix.com/GPX/1/1" xmlns:xsi="http://www.w3.org/2001/XMLSchema-instance" xsi:schemaLocation="http://www.topografix.com/GPX/1/1 http://www.topografix.com/GPX/1/1/gpx.xsd" version="1.1" creator="VisuGPX - https://www.visugpx.com">
  <metadata>
    <name>WU France cross handi</name>
  </metadata>
  <trk>
    <name><![CDATA[WU France cross handi_1]]></name>
    <trkseg>
      <trkpt lat="44.01565" lon="2.13319">
        <ele>344.3</ele>
        <time>2024-03-09T11:19:58Z</time>
      </trkpt>
      <trkpt lat="44.01584" lon="2.13295">
        <ele>344.4</ele>
        <time>2024-03-09T11:20:07Z</time>
      </trkpt>
      <trkpt lat="44.01598" lon="2.13279">
        <ele>344.4</ele>
        <time>2024-03-09T11:20:13Z</time>
      </trkpt>
      <trkpt lat="44.01613" lon="2.1326">
        <ele>344.4</ele>
        <time>2024-03-09T11:20:20Z</time>
      </trkpt>
      <trkpt lat="44.01627" lon="2.13244">
        <ele>344.4</ele>
        <time>2024-03-09T11:20:28Z</time>
      </trkpt>
      <trkpt lat="44.01642" lon="2.13226">
        <ele>344.4</ele>
        <time>2024-03-09T11:20:37Z</time>
      </trkpt>
      <trkpt lat="44.01657" lon="2.13211">
        <ele>344.5</ele>
        <time>2024-03-09T11:20:44Z</time>
      </trkpt>
      <trkpt lat="44.01672" lon="2.13193">
        <ele>344.6</ele>
        <time>2024-03-09T11:20:52Z</time>
      </trkpt>
      <trkpt lat="44.01689" lon="2.13177">
        <ele>344.8</ele>
        <time>2024-03-09T11:21:00Z</time>
      </trkpt>
      <trkpt lat="44.01703" lon="2.1316">
        <ele>345</ele>
        <time>2024-03-09T11:21:08Z</time>
      </trkpt>
      <trkpt lat="44.01721" lon="2.13145">
        <ele>345.2</ele>
        <time>2024-03-09T11:21:17Z</time>
      </trkpt>
      <trkpt lat="44.01737" lon="2.13134">
        <ele>345.2</ele>
        <time>2024-03-09T11:21:24Z</time>
      </trkpt>
      <trkpt lat="44.01754" lon="2.13122">
        <ele>345.1</ele>
        <time>2024-03-09T11:21:32Z</time>
      </trkpt>
      <trkpt lat="44.0177" lon="2.1311">
        <ele>345</ele>
        <time>2024-03-09T11:21:39Z</time>
      </trkpt>
      <trkpt lat="44.01787" lon="2.13095">
        <ele>344.7</ele>
        <time>2024-03-09T11:21:47Z</time>
      </trkpt>
      <trkpt lat="44.01802" lon="2.1308">
        <ele>344.5</ele>
        <time>2024-03-09T11:21:55Z</time>
      </trkpt>
      <trkpt lat="44.01818" lon="2.13066">
        <ele>344.2</ele>
        <time>2024-03-09T11:22:02Z</time>
      </trkpt>
      <trkpt lat="44.01835" lon="2.13053">
        <ele>344</ele>
        <time>2024-03-09T11:22:09Z</time>
      </trkpt>
      <trkpt lat="44.01852" lon="2.13042">
        <ele>343.7</ele>
        <time>2024-03-09T11:22:15Z</time>
      </trkpt>
      <trkpt lat="44.0187" lon="2.13031">
        <ele>343.4</ele>
        <time>2024-03-09T11:22:22Z</time>
      </trkpt>
      <trkpt lat="44.01889" lon="2.13026">
        <ele>343</ele>
        <time>2024-03-09T11:22:29Z</time>
      </trkpt>
      <trkpt lat="44.01909" lon="2.13024">
        <ele>342.7</ele>
        <time>2024-03-09T11:22:37Z</time>
      </trkpt>
      <trkpt lat="44.01928" lon="2.13023">
        <ele>342.4</ele>
        <time>2024-03-09T11:22:45Z</time>
      </trkpt>
      <trkpt lat="44.01947" lon="2.13023">
        <ele>342.1</ele>
        <time>2024-03-09T11:22:52Z</time>
      </trkpt>
      <trkpt lat="44.0196" lon="2.13037">
        <ele>342.6</ele>
        <time>2024-03-09T11:22:59Z</time>
      </trkpt>
      <trkpt lat="44.01961" lon="2.13063">
        <ele>343.5</ele>
        <time>2024-03-09T11:23:07Z</time>
      </trkpt>
      <trkpt lat="44.01957" lon="2.13073">
        <ele>343.9</ele>
        <time>2024-03-09T11:23:11Z</time>
      </trkpt>
      <trkpt lat="44.01953" lon="2.13079">
        <ele>344.3</ele>
        <time>2024-03-09T11:23:20Z</time>
      </trkpt>
      <trkpt lat="44.01951" lon="2.13083">
        <ele>344.3</ele>
        <time>2024-03-09T11:23:23Z</time>
      </trkpt>
      <trkpt lat="44.01947" lon="2.1311">
        <ele>345.5</ele>
        <time>2024-03-09T11:23:31Z</time>
      </trkpt>
      <trkpt lat="44.01944" lon="2.13113">
        <ele>345.6</ele>
        <time>2024-03-09T11:23:33Z</time>
      </trkpt>
      <trkpt lat="44.01925" lon="2.13115">
        <ele>346.2</ele>
        <time>2024-03-09T11:23:41Z</time>
      </trkpt>
      <trkpt lat="44.01905" lon="2.13116">
        <ele>346.8</ele>
        <time>2024-03-09T11:23:50Z</time>
      </trkpt>
      <trkpt lat="44.01887" lon="2.13118">
        <ele>347.4</ele>
        <time>2024-03-09T11:23:58Z</time>
      </trkpt>
      <trkpt lat="44.01867" lon="2.13125">
        <ele>347.8</ele>
        <time>2024-03-09T11:24:06Z</time>
      </trkpt>
      <trkpt lat="44.0185" lon="2.1313">
        <ele>348</ele>
        <time>2024-03-09T11:24:13Z</time>
      </trkpt>
      <trkpt lat="44.01831" lon="2.13137">
        <ele>348.3</ele>
        <time>2024-03-09T11:24:21Z</time>
      </trkpt>
      <trkpt lat="44.01813" lon="2.13142">
        <ele>348.3</ele>
        <time>2024-03-09T11:24:28Z</time>
      </trkpt>
      <trkpt lat="44.01795" lon="2.13146">
        <ele>348.4</ele>
        <time>2024-03-09T11:24:35Z</time>
      </trkpt>
      <trkpt lat="44.01777" lon="2.1315">
        <ele>348.7</ele>
        <time>2024-03-09T11:24:42Z</time>
      </trkpt>
      <trkpt lat="44.01758" lon="2.13154">
        <ele>348.9</ele>
        <time>2024-03-09T11:24:49Z</time>
      </trkpt>
      <trkpt lat="44.01743" lon="2.13167">
        <ele>348.8</ele>
        <time>2024-03-09T11:24:56Z</time>
      </trkpt>
      <trkpt lat="44.01747" lon="2.13194">
        <ele>349.3</ele>
        <time>2024-03-09T11:25:03Z</time>
      </trkpt>
      <trkpt lat="44.01751" lon="2.13219">
        <ele>349.9</ele>
        <time>2024-03-09T11:25:09Z</time>
      </trkpt>
      <trkpt lat="44.01766" lon="2.13228">
        <ele>350</ele>
        <time>2024-03-09T11:25:16Z</time>
      </trkpt>
      <trkpt lat="44.01784" lon="2.13218">
        <ele>349.8</ele>
        <time>2024-03-09T11:25:23Z</time>
      </trkpt>
      <trkpt lat="44.018" lon="2.13205">
        <ele>349.4</ele>
        <time>2024-03-09T11:25:30Z</time>
      </trkpt>
      <trkpt lat="44.01809" lon="2.13183">
        <ele>349.1</ele>
        <time>2024-03-09T11:25:38Z</time>
      </trkpt>
      <trkpt lat="44.01808" lon="2.13158">
        <ele>348.7</ele>
        <time>2024-03-09T11:25:45Z</time>
      </trkpt>
      <trkpt lat="44.01825" lon="2.13147">
        <ele>348.6</ele>
        <time>2024-03-09T11:25:52Z</time>
      </trkpt>
      <trkpt lat="44.01843" lon="2.13155">
        <ele>348.8</ele>
        <time>2024-03-09T11:25:59Z</time>
      </trkpt>
      <trkpt lat="44.01853" lon="2.13178">
        <ele>349.2</ele>
        <time>2024-03-09T11:26:06Z</time>
      </trkpt>
      <trkpt lat="44.01849" lon="2.13203">
        <ele>349.2</ele>
        <time>2024-03-09T11:26:13Z</time>
      </trkpt>
      <trkpt lat="44.0184" lon="2.13227">
        <ele>349.3</ele>
        <time>2024-03-09T11:26:20Z</time>
      </trkpt>
      <trkpt lat="44.01828" lon="2.1325">
        <ele>349.4</ele>
        <time>2024-03-09T11:26:27Z</time>
      </trkpt>
      <trkpt lat="44.01817" lon="2.13272">
        <ele>349.3</ele>
        <time>2024-03-09T11:26:34Z</time>
      </trkpt>
      <trkpt lat="44.01815" lon="2.13278">
        <ele>349.1</ele>
        <time>2024-03-09T11:26:36Z</time>
      </trkpt>
      <trkpt lat="44.01726" lon="2.13427">
        <ele>340.8</ele>
        <time>2024-03-09T11:31:34Z</time>
      </trkpt>
      <trkpt lat="44.01707" lon="2.13426">
        <ele>342.1</ele>
        <time>2024-03-09T11:31:43Z</time>
      </trkpt>
      <trkpt lat="44.01688" lon="2.13425">
        <ele>343.1</ele>
        <time>2024-03-09T11:31:52Z</time>
      </trkpt>
      <trkpt lat="44.01669" lon="2.13427">
        <ele>343.5</ele>
        <time>2024-03-09T11:32:02Z</time>
      </trkpt>
      <trkpt lat="44.01657" lon="2.13447">
        <ele>342.8</ele>
        <time>2024-03-09T11:32:10Z</time>
      </trkpt>
      <trkpt lat="44.01644" lon="2.13468">
        <ele>342.2</ele>
        <time>2024-03-09T11:32:18Z</time>
      </trkpt>
      <trkpt lat="44.01632" lon="2.13488">
        <ele>341.7</ele>
        <time>2024-03-09T11:32:27Z</time>
      </trkpt>
      <trkpt lat="44.01619" lon="2.13505">
        <ele>341.1</ele>
        <time>2024-03-09T11:32:36Z</time>
      </trkpt>
      <trkpt lat="44.01606" lon="2.13527">
        <ele>339.9</ele>
        <time>2024-03-09T11:32:45Z</time>
      </trkpt>
      <trkpt lat="44.01594" lon="2.13548">
        <ele>338.8</ele>
        <time>2024-03-09T11:32:53Z</time>
      </trkpt>
      <trkpt lat="44.01577" lon="2.13562">
        <ele>337.8</ele>
        <time>2024-03-09T11:33:00Z</time>
      </trkpt>
      <trkpt lat="44.01568" lon="2.13568">
        <ele>337.3</ele>
        <time>2024-03-09T11:33:05Z</time>
      </trkpt>
      <trkpt lat="44.01566" lon="2.13567">
        <ele>337.2</ele>
        <time>2024-03-09T11:33:31Z</time>
      </trkpt>
      <trkpt lat="44.01562" lon="2.13571">
        <ele>337</ele>
        <time>2024-03-09T11:33:34Z</time>
      </trkpt>
      <trkpt lat="44.01547" lon="2.13584">
        <ele>336.4</ele>
        <time>2024-03-09T11:33:41Z</time>
      </trkpt>
      <trkpt lat="44.01529" lon="2.13594">
        <ele>335.7</ele>
        <time>2024-03-09T11:33:47Z</time>
      </trkpt>
      <trkpt lat="44.01511" lon="2.13604">
        <ele>335.1</ele>
        <time>2024-03-09T11:33:54Z</time>
      </trkpt>
      <trkpt lat="44.01493" lon="2.13613">
        <ele>334.6</ele>
        <time>2024-03-09T11:34:01Z</time>
      </trkpt>
      <trkpt lat="44.01476" lon="2.13622">
        <ele>333.6</ele>
        <time>2024-03-09T11:34:08Z</time>
      </trkpt>
      <trkpt lat="44.01458" lon="2.13629">
        <ele>332.8</ele>
        <time>2024-03-09T11:34:15Z</time>
      </trkpt>
      <trkpt lat="44.0144" lon="2.1362">
        <ele>334</ele>
        <time>2024-03-09T11:34:23Z</time>
      </trkpt>
      <trkpt lat="44.01424" lon="2.13603">
        <ele>335.2</ele>
        <time>2024-03-09T11:34:31Z</time>
      </trkpt>
      <trkpt lat="44.01412" lon="2.13583">
        <ele>336.3</ele>
        <time>2024-03-09T11:34:39Z</time>
      </trkpt>
      <trkpt lat="44.01402" lon="2.1356">
        <ele>337.5</ele>
        <time>2024-03-09T11:34:48Z</time>
      </trkpt>
      <trkpt lat="44.01398" lon="2.13535">
        <ele>338.9</ele>
        <time>2024-03-09T11:34:56Z</time>
      </trkpt>
      <trkpt lat="44.01397" lon="2.13519">
        <ele>339.8</ele>
        <time>2024-03-09T11:35:03Z</time>
      </trkpt>
      <trkpt lat="44.01398" lon="2.13516">
        <ele>340</ele>
        <time>2024-03-09T11:35:05Z</time>
      </trkpt>
      <trkpt lat="44.01404" lon="2.13505">
        <ele>340.7</ele>
        <time>2024-03-09T11:35:21Z</time>
      </trkpt>
      <trkpt lat="44.01415" lon="2.13482">
        <ele>341.9</ele>
        <time>2024-03-09T11:35:31Z</time>
      </trkpt>
      <trkpt lat="44.0143" lon="2.13464">
        <ele>342.3</ele>
        <time>2024-03-09T11:35:39Z</time>
      </trkpt>
      <trkpt lat="44.01445" lon="2.13448">
        <ele>342.5</ele>
        <time>2024-03-09T11:35:47Z</time>
      </trkpt>
      <trkpt lat="44.01461" lon="2.1343">
        <ele>342.9</ele>
        <time>2024-03-09T11:35:55Z</time>
      </trkpt>
      <trkpt lat="44.01476" lon="2.13413">
        <ele>343.3</ele>
        <time>2024-03-09T11:36:03Z</time>
      </trkpt>
      <trkpt lat="44.01492" lon="2.13396">
        <ele>343.5</ele>
        <time>2024-03-09T11:36:11Z</time>
      </trkpt>
      <trkpt lat="44.01508" lon="2.13378">
        <ele>343.8</ele>
        <time>2024-03-09T11:36:19Z</time>
      </trkpt>
      <trkpt lat="44.01524" lon="2.13362">
        <ele>344</ele>
        <time>2024-03-09T11:36:26Z</time>
      </trkpt>
      <trkpt lat="44.01539" lon="2.13347">
        <ele>344.2</ele>
        <time>2024-03-09T11:36:33Z</time>
      </trkpt>
      <trkpt lat="44.01555" lon="2.13331">
        <ele>344.3</ele>
        <time>2024-03-09T11:36:41Z</time>
      </trkpt>
      <trkpt lat="44.01568" lon="2.13314">
        <ele>344.3</ele>
        <time>2024-03-09T11:36:48Z</time>
      </trkpt>
      <trkpt lat="44.01582" lon="2.13294">
        <ele>344.4</ele>
        <time>2024-03-09T11:36:56Z</time>
      </trkpt>
      <trkpt lat="44.01597" lon="2.13276">
        <ele>344.4</ele>
        <time>2024-03-09T11:37:04Z</time>
      </trkpt>
      <trkpt lat="44.01611" lon="2.13257">
        <ele>344.4</ele>
        <time>2024-03-09T11:37:12Z</time>
      </trkpt>
      <trkpt lat="44.01625" lon="2.13242">
        <ele>344.4</ele>
        <time>2024-03-09T11:37:20Z</time>
      </trkpt>
      <trkpt lat="44.01641" lon="2.13228">
        <ele>344.4</ele>
        <time>2024-03-09T11:37:28Z</time>
      </trkpt>
      <trkpt lat="44.01657" lon="2.13213">
        <ele>344.5</ele>
        <time>2024-03-09T11:37:36Z</time>
      </trkpt>
      <trkpt lat="44.01671" lon="2.13196">
        <ele>344.6</ele>
        <time>2024-03-09T11:37:44Z</time>
      </trkpt>
      <trkpt lat="44.01687" lon="2.13179">
        <ele>344.7</ele>
        <time>2024-03-09T11:37:52Z</time>
      </trkpt>
      <trkpt lat="44.01702" lon="2.1316">
        <ele>345</ele>
        <time>2024-03-09T11:38:00Z</time>
      </trkpt>
      <trkpt lat="44.01717" lon="2.13147">
        <ele>345.1</ele>
        <time>2024-03-09T11:38:07Z</time>
      </trkpt>
      <trkpt lat="44.01734" lon="2.13135">
        <ele>345.2</ele>
        <time>2024-03-09T11:38:14Z</time>
      </trkpt>
      <trkpt lat="44.0175" lon="2.13124">
        <ele>345.1</ele>
        <time>2024-03-09T11:38:21Z</time>
      </trkpt>
      <trkpt lat="44.01767" lon="2.13113">
        <ele>345</ele>
        <time>2024-03-09T11:38:28Z</time>
      </trkpt>
      <trkpt lat="44.01783" lon="2.13101">
        <ele>344.8</ele>
        <time>2024-03-09T11:38:35Z</time>
      </trkpt>
      <trkpt lat="44.01799" lon="2.13088">
        <ele>344.6</ele>
        <time>2024-03-09T11:38:42Z</time>
      </trkpt>
      <trkpt lat="44.01817" lon="2.13073">
        <ele>344.3</ele>
        <time>2024-03-09T11:38:50Z</time>
      </trkpt>
      <trkpt lat="44.01834" lon="2.13061">
        <ele>344</ele>
        <time>2024-03-09T11:38:57Z</time>
      </trkpt>
      <trkpt lat="44.01851" lon="2.13049">
        <ele>343.7</ele>
        <time>2024-03-09T11:39:04Z</time>
      </trkpt>
      <trkpt lat="44.01868" lon="2.13038">
        <ele>343.5</ele>
        <time>2024-03-09T11:39:11Z</time>
      </trkpt>
      <trkpt lat="44.01886" lon="2.1303">
        <ele>343.1</ele>
        <time>2024-03-09T11:39:18Z</time>
      </trkpt>
      <trkpt lat="44.01905" lon="2.13026">
        <ele>342.8</ele>
        <time>2024-03-09T11:39:25Z</time>
      </trkpt>
      <trkpt lat="44.01925" lon="2.13025">
        <ele>342.4</ele>
        <time>2024-03-09T11:39:33Z</time>
      </trkpt>
      <trkpt lat="44.01944" lon="2.13024">
        <ele>342.2</ele>
        <time>2024-03-09T11:39:41Z</time>
      </trkpt>
      <trkpt lat="44.01964" lon="2.13023">
        <ele>342.1</ele>
        <time>2024-03-09T11:39:49Z</time>
      </trkpt>
      <trkpt lat="44.01984" lon="2.13019">
        <ele>342.1</ele>
        <time>2024-03-09T11:39:57Z</time>
      </trkpt>
      <trkpt lat="44.02003" lon="2.13013">
        <ele>342</ele>
        <time>2024-03-09T11:40:05Z</time>
      </trkpt>
      <trkpt lat="44.02008" lon="2.12991">
        <ele>342</ele>
        <time>2024-03-09T11:40:13Z</time>
      </trkpt>
      <trkpt lat="44.02005" lon="2.12989">
        <ele>342</ele>
        <time>2024-03-09T11:40:15Z</time>
      </trkpt>
      <trkpt lat="44.01987" lon="2.12995">
        <ele>342</ele>
        <time>2024-03-09T11:40:23Z</time>
      </trkpt>
      <trkpt lat="44.01973" lon="2.12993">
        <ele>342.1</ele>
        <time>2024-03-09T11:40:30Z</time>
      </trkpt>
      <trkpt lat="44.01965" lon="2.12998">
        <ele>342.1</ele>
        <time>2024-03-09T11:40:34Z</time>
      </trkpt>
      <trkpt lat="44.01948" lon="2.13011">
        <ele>342.1</ele>
        <time>2024-03-09T11:40:43Z</time>
      </trkpt>
      <trkpt lat="44.01929" lon="2.13014">
        <ele>342.3</ele>
        <time>2024-03-09T11:40:51Z</time>
      </trkpt>
      <trkpt lat="44.0191" lon="2.13014">
        <ele>342.6</ele>
        <time>2024-03-09T11:40:58Z</time>
      </trkpt>
      <trkpt lat="44.01891" lon="2.13013">
        <ele>342.9</ele>
        <time>2024-03-09T11:41:05Z</time>
      </trkpt>
      <trkpt lat="44.01871" lon="2.13014">
        <ele>343.3</ele>
        <time>2024-03-09T11:41:13Z</time>
      </trkpt>
      <trkpt lat="44.01853" lon="2.13025">
        <ele>343.6</ele>
        <time>2024-03-09T11:41:21Z</time>
      </trkpt>
      <trkpt lat="44.01835" lon="2.13035">
        <ele>343.9</ele>
        <time>2024-03-09T11:41:30Z</time>
      </trkpt>
      <trkpt lat="44.01818" lon="2.13044">
        <ele>344.1</ele>
        <time>2024-03-09T11:41:39Z</time>
      </trkpt>
      <trkpt lat="44.01802" lon="2.13058">
        <ele>344.4</ele>
        <time>2024-03-09T11:41:47Z</time>
      </trkpt>
      <trkpt lat="44.01787" lon="2.13073">
        <ele>344.6</ele>
        <time>2024-03-09T11:41:55Z</time>
      </trkpt>
      <trkpt lat="44.01769" lon="2.13078">
        <ele>344.8</ele>
        <time>2024-03-09T11:42:04Z</time>
      </trkpt>
      <trkpt lat="44.01753" lon="2.1309">
        <ele>345</ele>
        <time>2024-03-09T11:42:12Z</time>
      </trkpt>
      <trkpt lat="44.0174" lon="2.13107">
        <ele>345.1</ele>
        <time>2024-03-09T11:42:19Z</time>
      </trkpt>
      <trkpt lat="44.01734" lon="2.13132">
        <ele>345.2</ele>
        <time>2024-03-09T11:42:27Z</time>
      </trkpt>
      <trkpt lat="44.0172" lon="2.13149">
        <ele>345.1</ele>
        <time>2024-03-09T11:42:35Z</time>
      </trkpt>
      <trkpt lat="44.01703" lon="2.13163">
        <ele>345</ele>
        <time>2024-03-09T11:42:43Z</time>
      </trkpt>
      <trkpt lat="44.01687" lon="2.13176">
        <ele>344.8</ele>
        <time>2024-03-09T11:42:50Z</time>
      </trkpt>
      <trkpt lat="44.01671" lon="2.13191">
        <ele>344.6</ele>
        <time>2024-03-09T11:42:59Z</time>
      </trkpt>
      <trkpt lat="44.01657" lon="2.13207">
        <ele>344.5</ele>
        <time>2024-03-09T11:43:07Z</time>
      </trkpt>
      <trkpt lat="44.01642" lon="2.13223">
        <ele>344.5</ele>
        <time>2024-03-09T11:43:18Z</time>
      </trkpt>
      <trkpt lat="44.01627" lon="2.1324">
        <ele>344.4</ele>
        <time>2024-03-09T11:43:28Z</time>
      </trkpt>
      <trkpt lat="44.01612" lon="2.13256">
        <ele>344.4</ele>
        <time>2024-03-09T11:43:37Z</time>
      </trkpt>
      <trkpt lat="44.01598" lon="2.13273">
        <ele>344.4</ele>
        <time>2024-03-09T11:43:45Z</time>
      </trkpt>
      <trkpt lat="44.01584" lon="2.13294">
        <ele>344.4</ele>
        <time>2024-03-09T11:43:54Z</time>
      </trkpt>
      <trkpt lat="44.01572" lon="2.13314">
        <ele>344.3</ele>
        <time>2024-03-09T11:44:02Z</time>
      </trkpt>
      <trkpt lat="44.01557" lon="2.13331">
        <ele>344.3</ele>
        <time>2024-03-09T11:44:11Z</time>
      </trkpt>
      <trkpt lat="44.01539" lon="2.13344">
        <ele>344.2</ele>
        <time>2024-03-09T11:44:20Z</time>
      </trkpt>
      <trkpt lat="44.01524" lon="2.13362">
        <ele>344</ele>
        <time>2024-03-09T11:44:28Z</time>
      </trkpt>
      <trkpt lat="44.01509" lon="2.13379">
        <ele>343.8</ele>
        <time>2024-03-09T11:44:36Z</time>
      </trkpt>
      <trkpt lat="44.01494" lon="2.13395">
        <ele>343.6</ele>
        <time>2024-03-09T11:44:43Z</time>
      </trkpt>
      <trkpt lat="44.01479" lon="2.13414">
        <ele>343.3</ele>
        <time>2024-03-09T11:44:51Z</time>
      </trkpt>
      <trkpt lat="44.01463" lon="2.13432">
        <ele>342.9</ele>
        <time>2024-03-09T11:44:59Z</time>
      </trkpt>
      <trkpt lat="44.01449" lon="2.13447">
        <ele>342.6</ele>
        <time>2024-03-09T11:45:06Z</time>
      </trkpt>
      <trkpt lat="44.01433" lon="2.1346">
        <ele>342.3</ele>
        <time>2024-03-09T11:45:15Z</time>
      </trkpt>
      <trkpt lat="44.01417" lon="2.13474">
        <ele>342.2</ele>
        <time>2024-03-09T11:45:23Z</time>
      </trkpt>
      <trkpt lat="44.01401" lon="2.13488">
        <ele>342</ele>
        <time>2024-03-09T11:45:31Z</time>
      </trkpt>
      <trkpt lat="44.01386" lon="2.13502">
        <ele>341.9</ele>
        <time>2024-03-09T11:45:39Z</time>
      </trkpt>
      <trkpt lat="44.0137" lon="2.13517">
        <ele>341.7</ele>
        <time>2024-03-09T11:45:47Z</time>
      </trkpt>
      <trkpt lat="44.01355" lon="2.13533">
        <ele>341.5</ele>
        <time>2024-03-09T11:45:55Z</time>
      </trkpt>
      <trkpt lat="44.01341" lon="2.13548">
        <ele>341.4</ele>
        <time>2024-03-09T11:46:02Z</time>
      </trkpt>
      <trkpt lat="44.01326" lon="2.13565">
        <ele>341.2</ele>
        <time>2024-03-09T11:46:10Z</time>
      </trkpt>
      <trkpt lat="44.01313" lon="2.13584">
        <ele>340.9</ele>
        <time>2024-03-09T11:46:18Z</time>
      </trkpt>
      <trkpt lat="44.01303" lon="2.13607">
        <ele>340.4</ele>
        <time>2024-03-09T11:46:26Z</time>
      </trkpt>
      <trkpt lat="44.01297" lon="2.13633">
        <ele>339.9</ele>
        <time>2024-03-09T11:46:34Z</time>
      </trkpt>
      <trkpt lat="44.01291" lon="2.13657">
        <ele>339.4</ele>
        <time>2024-03-09T11:46:42Z</time>
      </trkpt>
      <trkpt lat="44.01287" lon="2.13684">
        <ele>339</ele>
        <time>2024-03-09T11:46:50Z</time>
      </trkpt>
      <trkpt lat="44.01282" lon="2.13712">
        <ele>338.5</ele>
        <time>2024-03-09T11:46:58Z</time>
      </trkpt>
      <trkpt lat="44.01274" lon="2.13736">
        <ele>338.2</ele>
        <time>2024-03-09T11:47:07Z</time>
      </trkpt>
      <trkpt lat="44.01265" lon="2.13758">
        <ele>338</ele>
        <time>2024-03-09T11:47:15Z</time>
      </trkpt>
      <trkpt lat="44.01256" lon="2.13781">
        <ele>337.8</ele>
        <time>2024-03-09T11:47:23Z</time>
      </trkpt>
      <trkpt lat="44.01243" lon="2.138">
        <ele>337.2</ele>
        <time>2024-03-09T11:47:32Z</time>
      </trkpt>
      <trkpt lat="44.01227" lon="2.13818">
        <ele>335.8</ele>
        <time>2024-03-09T11:47:40Z</time>
      </trkpt>
      <trkpt lat="44.0123" lon="2.13841">
        <ele>334.5</ele>
        <time>2024-03-09T11:47:49Z</time>
      </trkpt>
      <trkpt lat="44.01248" lon="2.13848">
        <ele>333.7</ele>
        <time>2024-03-09T11:47:58Z</time>
      </trkpt>
      <trkpt lat="44.01268" lon="2.13848">
        <ele>332.1</ele>
        <time>2024-03-09T11:48:06Z</time>
      </trkpt>
      <trkpt lat="44.01288" lon="2.13848">
        <ele>330.2</ele>
        <time>2024-03-09T11:48:13Z</time>
      </trkpt>
      <trkpt lat="44.01309" lon="2.13848">
        <ele>328.7</ele>
        <time>2024-03-09T11:48:21Z</time>
      </trkpt>
      <trkpt lat="44.01327" lon="2.13851">
        <ele>327.3</ele>
        <time>2024-03-09T11:48:28Z</time>
      </trkpt>
      <trkpt lat="44.01344" lon="2.13857">
        <ele>326.3</ele>
        <time>2024-03-09T11:48:34Z</time>
      </trkpt>
      <trkpt lat="44.01363" lon="2.13864">
        <ele>324.7</ele>
        <time>2024-03-09T11:48:40Z</time>
      </trkpt>
      <trkpt lat="44.0138" lon="2.13874">
        <ele>323.1</ele>
        <time>2024-03-09T11:48:47Z</time>
      </trkpt>
      <trkpt lat="44.01384" lon="2.13899">
        <ele>321.9</ele>
        <time>2024-03-09T11:48:54Z</time>
      </trkpt>
      <trkpt lat="44.01396" lon="2.13918">
        <ele>321.3</ele>
        <time>2024-03-09T11:49:01Z</time>
      </trkpt>
      <trkpt lat="44.01401" lon="2.13926">
        <ele>318.4</ele>
        <time>2024-03-09T11:49:04Z</time>
      </trkpt>
      <trkpt lat="44.01402" lon="2.1393">
        <ele>316.6</ele>
        <time>2024-03-09T11:49:05Z</time>
      </trkpt>
      <trkpt lat="44.014" lon="2.13945">
        <ele>315.8</ele>
        <time>2024-03-09T12:05:07Z</time>
      </trkpt>
      <trkpt lat="44.01398" lon="2.13978">
        <ele>315.9</ele>
        <time>2024-03-09T12:05:15Z</time>
      </trkpt>
      <trkpt lat="44.01394" lon="2.14006">
        <ele>316.2</ele>
        <time>2024-03-09T12:05:22Z</time>
      </trkpt>
      <trkpt lat="44.01389" lon="2.14031">
        <ele>316.2</ele>
        <time>2024-03-09T12:05:29Z</time>
      </trkpt>
      <trkpt lat="44.01378" lon="2.14051">
        <ele>316.3</ele>
        <time>2024-03-09T12:05:37Z</time>
      </trkpt>
      <trkpt lat="44.01359" lon="2.14042">
        <ele>322</ele>
        <time>2024-03-09T12:05:46Z</time>
      </trkpt>
      <trkpt lat="44.01344" lon="2.14029">
        <ele>322.9</ele>
        <time>2024-03-09T12:05:53Z</time>
      </trkpt>
      <trkpt lat="44.01327" lon="2.14015">
        <ele>325.1</ele>
        <time>2024-03-09T12:06:01Z</time>
      </trkpt>
      <trkpt lat="44.01311" lon="2.14003">
        <ele>326.6</ele>
        <time>2024-03-09T12:06:09Z</time>
      </trkpt>
      <trkpt lat="44.01294" lon="2.13993">
        <ele>328</ele>
        <time>2024-03-09T12:06:17Z</time>
      </trkpt>
      <trkpt lat="44.01275" lon="2.13982">
        <ele>329.4</ele>
        <time>2024-03-09T12:06:25Z</time>
      </trkpt>
      <trkpt lat="44.01257" lon="2.13972">
        <ele>330.5</ele>
        <time>2024-03-09T12:06:33Z</time>
      </trkpt>
      <trkpt lat="44.01237" lon="2.1397">
        <ele>333.6</ele>
        <time>2024-03-09T12:06:41Z</time>
      </trkpt>
      <trkpt lat="44.01218" lon="2.13972">
        <ele>335.8</ele>
        <time>2024-03-09T12:06:49Z</time>
      </trkpt>
      <trkpt lat="44.01198" lon="2.13973">
        <ele>336.9</ele>
        <time>2024-03-09T12:06:58Z</time>
      </trkpt>
      <trkpt lat="44.01184" lon="2.13958">
        <ele>336.7</ele>
        <time>2024-03-09T12:07:06Z</time>
      </trkpt>
      <trkpt lat="44.01181" lon="2.13933">
        <ele>336.2</ele>
        <time>2024-03-09T12:07:13Z</time>
      </trkpt>
      <trkpt lat="44.01183" lon="2.13906">
        <ele>336.1</ele>
        <time>2024-03-09T12:07:21Z</time>
      </trkpt>
      <trkpt lat="44.01188" lon="2.1388">
        <ele>335.5</ele>
        <time>2024-03-09T12:07:29Z</time>
      </trkpt>
      <trkpt lat="44.01195" lon="2.13857">
        <ele>335.7</ele>
        <time>2024-03-09T12:07:37Z</time>
      </trkpt>
      <trkpt lat="44.01198" lon="2.13831">
        <ele>336.1</ele>
        <time>2024-03-09T12:07:45Z</time>
      </trkpt>
      <trkpt lat="44.01214" lon="2.13817">
        <ele>336.1</ele>
        <time>2024-03-09T12:07:53Z</time>
      </trkpt>
      <trkpt lat="44.01232" lon="2.13811">
        <ele>336.7</ele>
        <time>2024-03-09T12:08:00Z</time>
      </trkpt>
      <trkpt lat="44.01247" lon="2.13794">
        <ele>337.4</ele>
        <time>2024-03-09T12:08:08Z</time>
      </trkpt>
      <trkpt lat="44.01259" lon="2.13774">
        <ele>337.9</ele>
        <time>2024-03-09T12:08:15Z</time>
      </trkpt>
      <trkpt lat="44.0127" lon="2.1375">
        <ele>338</ele>
        <time>2024-03-09T12:08:23Z</time>
      </trkpt>
      <trkpt lat="44.01277" lon="2.13732">
        <ele>338.2</ele>
        <time>2024-03-09T12:08:32Z</time>
      </trkpt>
      <trkpt lat="44.01286" lon="2.1371">
        <ele>338.5</ele>
        <time>2024-03-09T12:08:43Z</time>
      </trkpt>
      <trkpt lat="44.01291" lon="2.13684">
        <ele>339</ele>
        <time>2024-03-09T12:08:52Z</time>
      </trkpt>
      <trkpt lat="44.01295" lon="2.13657">
        <ele>339.4</ele>
        <time>2024-03-09T12:09:01Z</time>
      </trkpt>
      <trkpt lat="44.01299" lon="2.13631">
        <ele>339.9</ele>
        <time>2024-03-09T12:09:09Z</time>
      </trkpt>
      <trkpt lat="44.01305" lon="2.13608">
        <ele>340.4</ele>
        <time>2024-03-09T12:09:17Z</time>
      </trkpt>
      <trkpt lat="44.01316" lon="2.13586">
        <ele>340.9</ele>
        <time>2024-03-09T12:09:25Z</time>
      </trkpt>
      <trkpt lat="44.01328" lon="2.13568">
        <ele>341.2</ele>
        <time>2024-03-09T12:09:33Z</time>
      </trkpt>
      <trkpt lat="44.01343" lon="2.13549">
        <ele>341.4</ele>
        <time>2024-03-09T12:09:42Z</time>
      </trkpt>
      <trkpt lat="44.01359" lon="2.13531">
        <ele>341.6</ele>
        <time>2024-03-09T12:09:50Z</time>
      </trkpt>
      <trkpt lat="44.01374" lon="2.13513">
        <ele>341.8</ele>
        <time>2024-03-09T12:09:58Z</time>
      </trkpt>
      <trkpt lat="44.0139" lon="2.13497">
        <ele>342</ele>
        <time>2024-03-09T12:10:06Z</time>
      </trkpt>
      <trkpt lat="44.01407" lon="2.13483">
        <ele>342.1</ele>
        <time>2024-03-09T12:10:14Z</time>
      </trkpt>
      <trkpt lat="44.01424" lon="2.1347">
        <ele>342.2</ele>
        <time>2024-03-09T12:10:22Z</time>
      </trkpt>
      <trkpt lat="44.0144" lon="2.13455">
        <ele>342.4</ele>
        <time>2024-03-09T12:10:30Z</time>
      </trkpt>
      <trkpt lat="44.01454" lon="2.13439">
        <ele>342.7</ele>
        <time>2024-03-09T12:10:38Z</time>
      </trkpt>
      <trkpt lat="44.01469" lon="2.13421">
        <ele>343.1</ele>
        <time>2024-03-09T12:10:46Z</time>
      </trkpt>
      <trkpt lat="44.01485" lon="2.13404">
        <ele>343.4</ele>
        <time>2024-03-09T12:10:54Z</time>
      </trkpt>
      <trkpt lat="44.01499" lon="2.13386">
        <ele>343.7</ele>
        <time>2024-03-09T12:11:02Z</time>
      </trkpt>
      <trkpt lat="44.01514" lon="2.13371">
        <ele>343.9</ele>
        <time>2024-03-09T12:11:10Z</time>
      </trkpt>
      <trkpt lat="44.0153" lon="2.13356">
        <ele>344.1</ele>
        <time>2024-03-09T12:11:18Z</time>
      </trkpt>
      <trkpt lat="44.01545" lon="2.13339">
        <ele>344.2</ele>
        <time>2024-03-09T12:11:26Z</time>
      </trkpt>
      <trkpt lat="44.0156" lon="2.13324">
        <ele>344.3</ele>
        <time>2024-03-09T12:11:34Z</time>
      </trkpt>
      <trkpt lat="44.01574" lon="2.13309">
        <ele>344.3</ele>
        <time>2024-03-09T12:11:42Z</time>
      </trkpt>
      <trkpt lat="44.01588" lon="2.13292">
        <ele>344.4</ele>
        <time>2024-03-09T12:11:49Z</time>
      </trkpt>
      <trkpt lat="44.01601" lon="2.13274">
        <ele>344.4</ele>
        <time>2024-03-09T12:11:56Z</time>
      </trkpt>
      <trkpt lat="44.01616" lon="2.13256">
        <ele>344.4</ele>
        <time>2024-03-09T12:12:04Z</time>
      </trkpt>
      <trkpt lat="44.01631" lon="2.13241">
        <ele>344.4</ele>
        <time>2024-03-09T12:12:12Z</time>
      </trkpt>
      <trkpt lat="44.01646" lon="2.13225">
        <ele>344.5</ele>
        <time>2024-03-09T12:12:20Z</time>
      </trkpt>
      <trkpt lat="44.01662" lon="2.1321">
        <ele>344.5</ele>
        <time>2024-03-09T12:12:28Z</time>
      </trkpt>
      <trkpt lat="44.01676" lon="2.13194">
        <ele>344.6</ele>
        <time>2024-03-09T12:12:36Z</time>
      </trkpt>
      <trkpt lat="44.01691" lon="2.13179">
        <ele>344.8</ele>
        <time>2024-03-09T12:12:44Z</time>
      </trkpt>
      <trkpt lat="44.01706" lon="2.13161">
        <ele>345</ele>
        <time>2024-03-09T12:12:52Z</time>
      </trkpt>
      <trkpt lat="44.01722" lon="2.13145">
        <ele>345.2</ele>
        <time>2024-03-09T12:13:01Z</time>
      </trkpt>
      <trkpt lat="44.0174" lon="2.13133">
        <ele>345.2</ele>
        <time>2024-03-09T12:13:10Z</time>
      </trkpt>
      <trkpt lat="44.01756" lon="2.13119">
        <ele>345.1</ele>
        <time>2024-03-09T12:13:18Z</time>
      </trkpt>
      <trkpt lat="44.01773" lon="2.13106">
        <ele>344.9</ele>
        <time>2024-03-09T12:13:26Z</time>
      </trkpt>
      <trkpt lat="44.0179" lon="2.13093">
        <ele>344.7</ele>
        <time>2024-03-09T12:13:34Z</time>
      </trkpt>
      <trkpt lat="44.01808" lon="2.13081">
        <ele>344.4</ele>
        <time>2024-03-09T12:13:42Z</time>
      </trkpt>
      <trkpt lat="44.01825" lon="2.13067">
        <ele>344.1</ele>
        <time>2024-03-09T12:13:50Z</time>
      </trkpt>
      <trkpt lat="44.01843" lon="2.13054">
        <ele>343.8</ele>
        <time>2024-03-09T12:13:58Z</time>
      </trkpt>
      <trkpt lat="44.01861" lon="2.13042">
        <ele>343.6</ele>
        <time>2024-03-09T12:14:06Z</time>
      </trkpt>
      <trkpt lat="44.0188" lon="2.13034">
        <ele>343.3</ele>
        <time>2024-03-09T12:14:14Z</time>
      </trkpt>
      <trkpt lat="44.01899" lon="2.13029">
        <ele>342.9</ele>
        <time>2024-03-09T12:14:22Z</time>
      </trkpt>
      <trkpt lat="44.01919" lon="2.13027">
        <ele>342.5</ele>
        <time>2024-03-09T12:14:30Z</time>
      </trkpt>
      <trkpt lat="44.01939" lon="2.13025">
        <ele>342.2</ele>
        <time>2024-03-09T12:14:38Z</time>
      </trkpt>
      <trkpt lat="44.01959" lon="2.13024">
        <ele>342.1</ele>
        <time>2024-03-09T12:14:46Z</time>
      </trkpt>
      <trkpt lat="44.01979" lon="2.13024">
        <ele>342.1</ele>
        <time>2024-03-09T12:14:54Z</time>
      </trkpt>
      <trkpt lat="44.01997" lon="2.13023">
        <ele>342</ele>
        <time>2024-03-09T12:15:01Z</time>
      </trkpt>
      <trkpt lat="44.02011" lon="2.13016">
        <ele>342</ele>
        <time>2024-03-09T12:15:08Z</time>
      </trkpt>
      <trkpt lat="44.02008" lon="2.13013">
        <ele>342</ele>
        <time>2024-03-09T12:15:10Z</time>
      </trkpt>
      <trkpt lat="44.01988" lon="2.13017">
        <ele>342.1</ele>
        <time>2024-03-09T12:15:18Z</time>
      </trkpt>
      <trkpt lat="44.01968" lon="2.1302">
        <ele>342.1</ele>
        <time>2024-03-09T12:15:26Z</time>
      </trkpt>
      <trkpt lat="44.01949" lon="2.13023">
        <ele>342.1</ele>
        <time>2024-03-09T12:15:33Z</time>
      </trkpt>
      <trkpt lat="44.01931" lon="2.13022">
        <ele>342.3</ele>
        <time>2024-03-09T12:15:40Z</time>
      </trkpt>
      <trkpt lat="44.01912" lon="2.13026">
        <ele>342.6</ele>
        <time>2024-03-09T12:15:48Z</time>
      </trkpt>
      <trkpt lat="44.01893" lon="2.13028">
        <ele>343</ele>
        <time>2024-03-09T12:15:56Z</time>
      </trkpt>
      <trkpt lat="44.01875" lon="2.13033">
        <ele>343.4</ele>
        <time>2024-03-09T12:16:04Z</time>
      </trkpt>
      <trkpt lat="44.01857" lon="2.13042">
        <ele>343.6</ele>
        <time>2024-03-09T12:16:12Z</time>
      </trkpt>
      <trkpt lat="44.0184" lon="2.13055">
        <ele>343.9</ele>
        <time>2024-03-09T12:16:20Z</time>
      </trkpt>
      <trkpt lat="44.01825" lon="2.13069">
        <ele>344.2</ele>
        <time>2024-03-09T12:16:28Z</time>
      </trkpt>
      <trkpt lat="44.01809" lon="2.13081">
        <ele>344.4</ele>
        <time>2024-03-09T12:16:36Z</time>
      </trkpt>
      <trkpt lat="44.01791" lon="2.13091">
        <ele>344.7</ele>
        <time>2024-03-09T12:16:44Z</time>
      </trkpt>
      <trkpt lat="44.01774" lon="2.13102">
        <ele>344.9</ele>
        <time>2024-03-09T12:16:52Z</time>
      </trkpt>
      <trkpt lat="44.01758" lon="2.13115">
        <ele>345.1</ele>
        <time>2024-03-09T12:17:00Z</time>
      </trkpt>
      <trkpt lat="44.01741" lon="2.13126">
        <ele>345.2</ele>
        <time>2024-03-09T12:17:08Z</time>
      </trkpt>
      <trkpt lat="44.01724" lon="2.1314">
        <ele>345.2</ele>
        <time>2024-03-09T12:17:16Z</time>
      </trkpt>
      <trkpt lat="44.01707" lon="2.13155">
        <ele>345.1</ele>
        <time>2024-03-09T12:17:24Z</time>
      </trkpt>
      <trkpt lat="44.01691" lon="2.13171">
        <ele>344.8</ele>
        <time>2024-03-09T12:17:32Z</time>
      </trkpt>
      <trkpt lat="44.01676" lon="2.13186">
        <ele>344.6</ele>
        <time>2024-03-09T12:17:39Z</time>
      </trkpt>
      <trkpt lat="44.01661" lon="2.13202">
        <ele>344.6</ele>
        <time>2024-03-09T12:17:46Z</time>
      </trkpt>
      <trkpt lat="44.01647" lon="2.13221">
        <ele>344.5</ele>
        <time>2024-03-09T12:17:54Z</time>
      </trkpt>
      <trkpt lat="44.01631" lon="2.13239">
        <ele>344.4</ele>
        <time>2024-03-09T12:18:02Z</time>
      </trkpt>
      <trkpt lat="44.01616" lon="2.13255">
        <ele>344.4</ele>
        <time>2024-03-09T12:18:10Z</time>
      </trkpt>
      <trkpt lat="44.01601" lon="2.13271">
        <ele>344.4</ele>
        <time>2024-03-09T12:18:17Z</time>
      </trkpt>
      <trkpt lat="44.01585" lon="2.13289">
        <ele>344.4</ele>
        <time>2024-03-09T12:18:25Z</time>
      </trkpt>
      <trkpt lat="44.01571" lon="2.13308">
        <ele>344.3</ele>
        <time>2024-03-09T12:18:33Z</time>
      </trkpt>
      <trkpt lat="44.01559" lon="2.13329">
        <ele>344.3</ele>
        <time>2024-03-09T12:18:41Z</time>
      </trkpt>
      <trkpt lat="44.01542" lon="2.13346">
        <ele>344.2</ele>
        <time>2024-03-09T12:18:49Z</time>
      </trkpt>
      <trkpt lat="44.01527" lon="2.13361">
        <ele>344.1</ele>
        <time>2024-03-09T12:18:56Z</time>
      </trkpt>
      <trkpt lat="44.01512" lon="2.13378">
        <ele>343.8</ele>
        <time>2024-03-09T12:19:04Z</time>
      </trkpt>
      <trkpt lat="44.01497" lon="2.13393">
        <ele>343.6</ele>
        <time>2024-03-09T12:19:11Z</time>
      </trkpt>
      <trkpt lat="44.01482" lon="2.13409">
        <ele>343.4</ele>
        <time>2024-03-09T12:19:18Z</time>
      </trkpt>
      <trkpt lat="44.01466" lon="2.13427">
        <ele>343</ele>
        <time>2024-03-09T12:19:26Z</time>
      </trkpt>
      <trkpt lat="44.01452" lon="2.13444">
        <ele>342.6</ele>
        <time>2024-03-09T12:19:33Z</time>
      </trkpt>
      <trkpt lat="44.01436" lon="2.13457">
        <ele>342.4</ele>
        <time>2024-03-09T12:19:40Z</time>
      </trkpt>
      <trkpt lat="44.01419" lon="2.13467">
        <ele>342.2</ele>
        <time>2024-03-09T12:19:47Z</time>
      </trkpt>
      <trkpt lat="44.01404" lon="2.13482">
        <ele>342.1</ele>
        <time>2024-03-09T12:19:54Z</time>
      </trkpt>
      <trkpt lat="44.01388" lon="2.13494">
        <ele>342</ele>
        <time>2024-03-09T12:20:01Z</time>
      </trkpt>
      <trkpt lat="44.01371" lon="2.1351">
        <ele>341.8</ele>
        <time>2024-03-09T12:20:09Z</time>
      </trkpt>
      <trkpt lat="44.01356" lon="2.13529">
        <ele>341.6</ele>
        <time>2024-03-09T12:20:17Z</time>
      </trkpt>
      <trkpt lat="44.01341" lon="2.13546">
        <ele>341.4</ele>
        <time>2024-03-09T12:20:25Z</time>
      </trkpt>
      <trkpt lat="44.01327" lon="2.13566">
        <ele>341.2</ele>
        <time>2024-03-09T12:20:33Z</time>
      </trkpt>
      <trkpt lat="44.01314" lon="2.13584">
        <ele>340.9</ele>
        <time>2024-03-09T12:20:40Z</time>
      </trkpt>
      <trkpt lat="44.01303" lon="2.13605">
        <ele>340.4</ele>
        <time>2024-03-09T12:20:47Z</time>
      </trkpt>
      <trkpt lat="44.01296" lon="2.1363">
        <ele>339.9</ele>
        <time>2024-03-09T12:20:54Z</time>
      </trkpt>
      <trkpt lat="44.01292" lon="2.13655">
        <ele>339.4</ele>
        <time>2024-03-09T12:21:01Z</time>
      </trkpt>
      <trkpt lat="44.01288" lon="2.13682">
        <ele>339</ele>
        <time>2024-03-09T12:21:08Z</time>
      </trkpt>
      <trkpt lat="44.01283" lon="2.13706">
        <ele>338.6</ele>
        <time>2024-03-09T12:21:15Z</time>
      </trkpt>
      <trkpt lat="44.01277" lon="2.13731">
        <ele>338.2</ele>
        <time>2024-03-09T12:21:25Z</time>
      </trkpt>
      <trkpt lat="44.01267" lon="2.13755">
        <ele>338</ele>
        <time>2024-03-09T12:21:33Z</time>
      </trkpt>
      <trkpt lat="44.01257" lon="2.13776">
        <ele>337.8</ele>
        <time>2024-03-09T12:21:40Z</time>
      </trkpt>
      <trkpt lat="44.01244" lon="2.13795">
        <ele>337.3</ele>
        <time>2024-03-09T12:21:47Z</time>
      </trkpt>
      <trkpt lat="44.0123" lon="2.13811">
        <ele>336.6</ele>
        <time>2024-03-09T12:21:54Z</time>
      </trkpt>
      <trkpt lat="44.01221" lon="2.13828">
        <ele>335.6</ele>
        <time>2024-03-09T12:22:00Z</time>
      </trkpt>
      <trkpt lat="44.01235" lon="2.13845">
        <ele>334.2</ele>
        <time>2024-03-09T12:22:08Z</time>
      </trkpt>
      <trkpt lat="44.01256" lon="2.13847">
        <ele>332.6</ele>
        <time>2024-03-09T12:22:16Z</time>
      </trkpt>
      <trkpt lat="44.01276" lon="2.13848">
        <ele>331</ele>
        <time>2024-03-09T12:22:23Z</time>
      </trkpt>
      <trkpt lat="44.01296" lon="2.13848">
        <ele>329.2</ele>
        <time>2024-03-09T12:22:30Z</time>
      </trkpt>
      <trkpt lat="44.01314" lon="2.1385">
        <ele>327.6</ele>
        <time>2024-03-09T12:22:36Z</time>
      </trkpt>
      <trkpt lat="44.01332" lon="2.13855">
        <ele>326</ele>
        <time>2024-03-09T12:22:42Z</time>
      </trkpt>
      <trkpt lat="44.01353" lon="2.13862">
        <ele>324.3</ele>
        <time>2024-03-09T12:22:50Z</time>
      </trkpt>
      <trkpt lat="44.01371" lon="2.1387">
        <ele>322.9</ele>
        <time>2024-03-09T12:22:56Z</time>
      </trkpt>
      <trkpt lat="44.01383" lon="2.13888">
        <ele>321.6</ele>
        <time>2024-03-09T12:23:03Z</time>
      </trkpt>
      <trkpt lat="44.01389" lon="2.13911">
        <ele>320.3</ele>
        <time>2024-03-09T12:23:11Z</time>
      </trkpt>
      <trkpt lat="44.01404" lon="2.1393">
        <ele>318.4</ele>
        <time>2024-03-09T12:23:19Z</time>
      </trkpt>
      <trkpt lat="44.01404" lon="2.13933">
        <ele>318.2</ele>
        <time>2024-03-09T12:23:20Z</time>
      </trkpt>
      <trkpt lat="44.01379" lon="2.13905">
        <ele>321.3</ele>
        <time>2024-03-09T12:37:26Z</time>
      </trkpt>
      <trkpt lat="44.01364" lon="2.13887">
        <ele>322.8</ele>
        <time>2024-03-09T12:37:37Z</time>
      </trkpt>
      <trkpt lat="44.0135" lon="2.1387">
        <ele>324.3</ele>
        <time>2024-03-09T12:37:47Z</time>
      </trkpt>
      <trkpt lat="44.01341" lon="2.13848">
        <ele>326.2</ele>
        <time>2024-03-09T12:37:57Z</time>
      </trkpt>
      <trkpt lat="44.01336" lon="2.13824">
        <ele>329</ele>
        <time>2024-03-09T12:38:08Z</time>
      </trkpt>
      <trkpt lat="44.01334" lon="2.1382">
        <ele>329.2</ele>
        <time>2024-03-09T12:38:09Z</time>
      </trkpt>
      <trkpt lat="44.01317" lon="2.13813">
        <ele>330.6</ele>
        <time>2024-03-09T12:38:21Z</time>
      </trkpt>
      <trkpt lat="44.01298" lon="2.13816">
        <ele>332.1</ele>
        <time>2024-03-09T12:38:31Z</time>
      </trkpt>
      <trkpt lat="44.01285" lon="2.13798">
        <ele>333.9</ele>
        <time>2024-03-09T12:38:42Z</time>
      </trkpt>
      <trkpt lat="44.01276" lon="2.13776">
        <ele>335.9</ele>
        <time>2024-03-09T12:38:52Z</time>
      </trkpt>
      <trkpt lat="44.01271" lon="2.13752">
        <ele>337.4</ele>
        <time>2024-03-09T12:39:02Z</time>
      </trkpt>
      <trkpt lat="44.01271" lon="2.13742">
        <ele>338.1</ele>
        <time>2024-03-09T12:39:06Z</time>
      </trkpt>
      <trkpt lat="44.01297" lon="2.13653">
        <ele>339.5</ele>
        <time>2024-03-09T12:40:03Z</time>
      </trkpt>
      <trkpt lat="44.01305" lon="2.1363">
        <ele>340</ele>
        <time>2024-03-09T12:40:12Z</time>
      </trkpt>
      <trkpt lat="44.01313" lon="2.13604">
        <ele>340.6</ele>
        <time>2024-03-09T12:40:21Z</time>
      </trkpt>
      <trkpt lat="44.01324" lon="2.13581">
        <ele>341</ele>
        <time>2024-03-09T12:40:29Z</time>
      </trkpt>
      <trkpt lat="44.01336" lon="2.13562">
        <ele>341.3</ele>
        <time>2024-03-09T12:40:38Z</time>
      </trkpt>
      <trkpt lat="44.01352" lon="2.13546">
        <ele>341.5</ele>
        <time>2024-03-09T12:40:48Z</time>
      </trkpt>
      <trkpt lat="44.01366" lon="2.13526">
        <ele>341.6</ele>
        <time>2024-03-09T12:40:59Z</time>
      </trkpt>
      <trkpt lat="44.0138" lon="2.13511">
        <ele>341.9</ele>
        <time>2024-03-09T12:41:07Z</time>
      </trkpt>
      <trkpt lat="44.01396" lon="2.13497">
        <ele>342</ele>
        <time>2024-03-09T12:41:15Z</time>
      </trkpt>
      <trkpt lat="44.01413" lon="2.13486">
        <ele>342.1</ele>
        <time>2024-03-09T12:41:23Z</time>
      </trkpt>
      <trkpt lat="44.0143" lon="2.13472">
        <ele>342.3</ele>
        <time>2024-03-09T12:41:32Z</time>
      </trkpt>
      <trkpt lat="44.01446" lon="2.13457">
        <ele>342.5</ele>
        <time>2024-03-09T12:41:40Z</time>
      </trkpt>
      <trkpt lat="44.01461" lon="2.1344">
        <ele>342.8</ele>
        <time>2024-03-09T12:41:48Z</time>
      </trkpt>
      <trkpt lat="44.01475" lon="2.13421">
        <ele>343.2</ele>
        <time>2024-03-09T12:41:56Z</time>
      </trkpt>
      <trkpt lat="44.01488" lon="2.13401">
        <ele>343.5</ele>
        <time>2024-03-09T12:42:04Z</time>
      </trkpt>
      <trkpt lat="44.01502" lon="2.13384">
        <ele>343.7</ele>
        <time>2024-03-09T12:42:12Z</time>
      </trkpt>
      <trkpt lat="44.01519" lon="2.13371">
        <ele>344</ele>
        <time>2024-03-09T12:42:20Z</time>
      </trkpt>
      <trkpt lat="44.01536" lon="2.13355">
        <ele>344.1</ele>
        <time>2024-03-09T12:42:28Z</time>
      </trkpt>
      <trkpt lat="44.0155" lon="2.13337">
        <ele>344.2</ele>
        <time>2024-03-09T12:42:36Z</time>
      </trkpt>
      <trkpt lat="44.01565" lon="2.1332">
        <ele>344.3</ele>
        <time>2024-03-09T12:42:44Z</time>
      </trkpt>
      <trkpt lat="44.01577" lon="2.133">
        <ele>344.4</ele>
        <time>2024-03-09T12:42:53Z</time>
      </trkpt>
      <trkpt lat="44.01589" lon="2.13279">
        <ele>344.4</ele>
        <time>2024-03-09T12:43:03Z</time>
      </trkpt>
      <trkpt lat="44.01604" lon="2.13262">
        <ele>344.4</ele>
        <time>2024-03-09T12:43:14Z</time>
      </trkpt>
      <trkpt lat="44.01612" lon="2.13252">
        <ele>344.4</ele>
        <time>2024-03-09T12:43:21Z</time>
      </trkpt>
      <trkpt lat="44.01652" lon="2.13213">
        <ele>344.5</ele>
        <time>2024-03-09T12:44:09Z</time>
      </trkpt>
      <trkpt lat="44.01669" lon="2.13199">
        <ele>344.6</ele>
        <time>2024-03-09T12:44:18Z</time>
      </trkpt>
      <trkpt lat="44.01685" lon="2.13184">
        <ele>344.7</ele>
        <time>2024-03-09T12:44:26Z</time>
      </trkpt>
      <trkpt lat="44.017" lon="2.13168">
        <ele>345</ele>
        <time>2024-03-09T12:44:35Z</time>
      </trkpt>
      <trkpt lat="44.01716" lon="2.13151">
        <ele>345.1</ele>
        <time>2024-03-09T12:44:43Z</time>
      </trkpt>
      <trkpt lat="44.01733" lon="2.13139">
        <ele>345.2</ele>
        <time>2024-03-09T12:44:50Z</time>
      </trkpt>
      <trkpt lat="44.01749" lon="2.13127">
        <ele>345.2</ele>
        <time>2024-03-09T12:44:57Z</time>
      </trkpt>
      <trkpt lat="44.01765" lon="2.13114">
        <ele>345</ele>
        <time>2024-03-09T12:45:04Z</time>
      </trkpt>
      <trkpt lat="44.01782" lon="2.13102">
        <ele>344.9</ele>
        <time>2024-03-09T12:45:11Z</time>
      </trkpt>
      <trkpt lat="44.018" lon="2.1309">
        <ele>344.7</ele>
        <time>2024-03-09T12:45:18Z</time>
      </trkpt>
      <trkpt lat="44.01817" lon="2.13081">
        <ele>344.5</ele>
        <time>2024-03-09T12:45:25Z</time>
      </trkpt>
      <trkpt lat="44.01835" lon="2.13071">
        <ele>344.2</ele>
        <time>2024-03-09T12:45:32Z</time>
      </trkpt>
      <trkpt lat="44.01853" lon="2.13062">
        <ele>344</ele>
        <time>2024-03-09T12:45:39Z</time>
      </trkpt>
      <trkpt lat="44.01871" lon="2.13052">
        <ele>343.8</ele>
        <time>2024-03-09T12:45:46Z</time>
      </trkpt>
      <trkpt lat="44.0189" lon="2.13045">
        <ele>343.5</ele>
        <time>2024-03-09T12:45:53Z</time>
      </trkpt>
      <trkpt lat="44.01909" lon="2.13039">
        <ele>343.2</ele>
        <time>2024-03-09T12:46:00Z</time>
      </trkpt>
      <trkpt lat="44.01927" lon="2.13036">
        <ele>342.9</ele>
        <time>2024-03-09T12:46:08Z</time>
      </trkpt>
      <trkpt lat="44.01947" lon="2.13036">
        <ele>342.6</ele>
        <time>2024-03-09T12:46:19Z</time>
      </trkpt>
      <trkpt lat="44.01953" lon="2.13042">
        <ele>342.5</ele>
        <time>2024-03-09T12:46:23Z</time>
      </trkpt>
      <trkpt lat="44.01953" lon="2.13067">
        <ele>342.2</ele>
        <time>2024-03-09T12:46:33Z</time>
      </trkpt>
      <trkpt lat="44.01965" lon="2.13088">
        <ele>342.1</ele>
        <time>2024-03-09T12:46:44Z</time>
      </trkpt>
      <trkpt lat="44.01983" lon="2.13092">
        <ele>342.1</ele>
        <time>2024-03-09T12:46:54Z</time>
      </trkpt>
      <trkpt lat="44.01996" lon="2.13073">
        <ele>342.1</ele>
        <time>2024-03-09T12:47:07Z</time>
      </trkpt>
      <trkpt lat="44.02006" lon="2.13052">
        <ele>342</ele>
        <time>2024-03-09T12:47:25Z</time>
      </trkpt>
      <trkpt lat="44.02021" lon="2.13036">
        <ele>342</ele>
        <time>2024-03-09T12:47:37Z</time>
      </trkpt>
      <trkpt lat="44.02029" lon="2.13026">
        <ele>341.9</ele>
        <time>2024-03-09T12:47:42Z</time>
      </trkpt>
      <trkpt lat="44.02012" lon="2.13031">
        <ele>342</ele>
        <time>2024-03-09T12:47:51Z</time>
      </trkpt>
      <trkpt lat="44.01995" lon="2.13041">
        <ele>342</ele>
        <time>2024-03-09T12:48:04Z</time>
      </trkpt>
      <trkpt lat="44.01988" lon="2.13046">
        <ele>342.1</ele>
        <time>2024-03-09T12:48:13Z</time>
      </trkpt>
      <trkpt lat="44.01979" lon="2.1305">
        <ele>342.1</ele>
        <time>2024-03-09T12:48:23Z</time>
      </trkpt>
      <trkpt lat="44.01959" lon="2.13069">
        <ele>342.1</ele>
        <time>2024-03-09T12:48:44Z</time>
      </trkpt>
      <trkpt lat="44.0196" lon="2.13076">
        <ele>342.1</ele>
        <time>2024-03-09T12:48:49Z</time>
      </trkpt>
      <trkpt lat="44.01978" lon="2.13088">
        <ele>342.1</ele>
        <time>2024-03-09T12:48:59Z</time>
      </trkpt>
      <trkpt lat="44.01995" lon="2.1308">
        <ele>342.1</ele>
        <time>2024-03-09T12:49:07Z</time>
      </trkpt>
      <trkpt lat="44.0201" lon="2.13065">
        <ele>342</ele>
        <time>2024-03-09T12:49:15Z</time>
      </trkpt>
      <trkpt lat="44.02024" lon="2.13048">
        <ele>342</ele>
        <time>2024-03-09T12:49:23Z</time>
      </trkpt>
      <trkpt lat="44.02039" lon="2.1303">
        <ele>341.8</ele>
        <time>2024-03-09T12:49:32Z</time>
      </trkpt>
      <trkpt lat="44.02045" lon="2.13018">
        <ele>341.8</ele>
        <time>2024-03-09T12:49:38Z</time>
      </trkpt>
      <trkpt lat="44.02027" lon="2.13024">
        <ele>341.9</ele>
        <time>2024-03-09T12:49:46Z</time>
      </trkpt>
      <trkpt lat="44.0201" lon="2.13033">
        <ele>342</ele>
        <time>2024-03-09T12:49:53Z</time>
      </trkpt>
      <trkpt lat="44.01998" lon="2.13038">
        <ele>342</ele>
        <time>2024-03-09T12:50:03Z</time>
      </trkpt>
      <trkpt lat="44.01994" lon="2.13042">
        <ele>342</ele>
        <time>2024-03-09T12:50:10Z</time>
      </trkpt>
      <trkpt lat="44.01992" lon="2.13044">
        <ele>342</ele>
        <time>2024-03-09T12:50:12Z</time>
      </trkpt>
      <trkpt lat="44.01975" lon="2.13056">
        <ele>342.1</ele>
        <time>2024-03-09T12:50:24Z</time>
      </trkpt>
      <trkpt lat="44.01964" lon="2.13077">
        <ele>342.1</ele>
        <time>2024-03-09T12:50:35Z</time>
      </trkpt>
      <trkpt lat="44.0196" lon="2.13081">
        <ele>342.1</ele>
        <time>2024-03-09T12:50:39Z</time>
      </trkpt>
      <trkpt lat="44.01954" lon="2.13082">
        <ele>342.1</ele>
        <time>2024-03-09T12:53:16Z</time>
      </trkpt>
      <trkpt lat="44.01976" lon="2.13078">
        <ele>342.1</ele>
        <time>2024-03-09T12:53:23Z</time>
      </trkpt>
      <trkpt lat="44.01995" lon="2.13067">
        <ele>342</ele>
        <time>2024-03-09T12:53:27Z</time>
      </trkpt>
      <trkpt lat="44.02008" lon="2.13056">
        <ele>342</ele>
        <time>2024-03-09T12:53:30Z</time>
      </trkpt>
      <trkpt lat="44.02025" lon="2.13038">
        <ele>341.9</ele>
        <time>2024-03-09T12:53:35Z</time>
      </trkpt>
      <trkpt lat="44.02033" lon="2.1303">
        <ele>341.9</ele>
        <time>2024-03-09T12:53:38Z</time>
      </trkpt>
      <trkpt lat="44.02035" lon="2.13025">
        <ele>341.8</ele>
        <time>2024-03-09T12:53:40Z</time>
      </trkpt>
      <trkpt lat="44.02017" lon="2.13031">
        <ele>342</ele>
        <time>2024-03-09T12:53:46Z</time>
      </trkpt>
      <trkpt lat="44.01997" lon="2.13044">
        <ele>342</ele>
        <time>2024-03-09T12:53:52Z</time>
      </trkpt>
      <trkpt lat="44.01978" lon="2.1306">
        <ele>342.1</ele>
        <time>2024-03-09T12:53:57Z</time>
      </trkpt>
      <trkpt lat="44.01963" lon="2.13077">
        <ele>342.1</ele>
        <time>2024-03-09T12:54:02Z</time>
      </trkpt>
      <trkpt lat="44.01957" lon="2.13083">
        <ele>342.1</ele>
        <time>2024-03-09T12:54:05Z</time>
      </trkpt>
      <trkpt lat="44.01952" lon="2.13081">
        <ele>342.2</ele>
        <time>2024-03-09T12:54:09Z</time>
      </trkpt>
    </trkseg>
  </trk>
</gpx>